Time;durP1;ratioP1;P1;durP2;ratioP2;P2;SDS_P1;SDS_P2;PMS_P1;PMS_P2;Temp;Humidity;BMP_temperature;BMP_pressure;BME280_temperature;BME280_humidity;BME280_pressure;Samples;Min_cycle;Max_cycle;Signal;HPM_P1;HPM_P2
2023/03/26 00:00:10;;;;;;;32.28;5.40;;;7.30;99.90;;;;;;5024102;28;20033;-68
2023/03/26 00:02:38;;;;;;;27.13;5.18;;;7.30;99.90;;;;;;5022391;28;20053;-69
2023/03/26 00:05:05;;;;;;;29.10;5.93;;;7.30;99.90;;;;;;5023555;28;20026;-69
2023/03/26 00:07:30;;;;;;;30.67;6.32;;;7.30;99.90;;;;;;5022288;28;20058;-68
2023/03/26 00:09:57;;;;;;;28.38;6.15;;;7.30;99.90;;;;;;5023215;28;20080;-69
2023/03/26 00:12:24;;;;;;;39.50;6.90;;;7.30;99.90;;;;;;5023905;28;20022;-67
2023/03/26 00:14:51;;;;;;;29.92;5.63;;;7.30;99.90;;;;;;5025170;28;20046;-70
2023/03/26 00:17:16;;;;;;;23.88;5.97;;;7.30;99.90;;;;;;5043238;28;20041;-68
2023/03/26 00:19:42;;;;;;;27.52;5.50;;;7.20;99.90;;;;;;5047212;28;20048;-68
2023/03/26 00:22:12;;;;;;;23.15;4.97;;;7.30;99.90;;;;;;5047412;28;20036;-68
2023/03/26 00:24:39;;;;;;;23.55;4.35;;;7.20;99.90;;;;;;5046899;28;20045;-69
2023/03/26 00:27:05;;;;;;;27.92;5.35;;;7.20;99.90;;;;;;5044999;28;20119;-70
2023/03/26 00:29:32;;;;;;;25.25;4.78;;;7.20;99.90;;;;;;5027708;28;20029;-69
2023/03/26 00:31:58;;;;;;;27.00;6.10;;;7.20;99.90;;;;;;5029311;28;20026;-70
2023/03/26 00:34:25;;;;;;;34.20;5.97;;;7.20;99.90;;;;;;5045462;28;20038;-67
2023/03/26 00:36:53;;;;;;;39.92;6.03;;;7.20;99.90;;;;;;5047145;28;20112;-68
2023/03/26 00:39:20;;;;;;;25.00;6.28;;;7.10;99.90;;;;;;5045351;28;20049;-69
2023/03/26 00:41:46;;;;;;;22.98;5.13;;;7.10;99.90;;;;;;5046399;28;20026;-68
2023/03/26 00:44:11;;;;;;;28.52;5.88;;;7.20;99.90;;;;;;5046306;28;20032;-69
2023/03/26 00:46:38;;;;;;;27.65;6.03;;;7.20;99.90;;;;;;5044683;28;20029;-68
2023/03/26 00:49:03;;;;;;;22.95;5.55;;;7.10;99.90;;;;;;5046966;28;20032;-69
2023/03/26 00:51:30;;;;;;;25.05;5.38;;;7.10;99.90;;;;;;5044885;28;20025;-69
2023/03/26 00:53:56;;;;;;;34.38;4.95;;;7.10;99.90;;;;;;5046333;28;20053;-69
2023/03/26 00:56:22;;;;;;;22.77;5.32;;;7.10;99.90;;;;;;5046312;28;20061;-70
2023/03/26 00:58:48;;;;;;;15.55;4.53;;;7.10;99.90;;;;;;5046767;28;20051;-70
2023/03/26 01:01:19;;;;;;;24.63;4.65;;;7.10;99.90;;;;;;5040229;28;20022;-68
2023/03/26 01:03:45;;;;;;;16.05;4.35;;;7.10;99.90;;;;;;5025410;28;20050;-68
2023/03/26 01:06:15;;;;;;;21.27;4.30;;;7.10;99.90;;;;;;5026300;28;20053;-69
2023/03/26 01:08:45;;;;;;;30.05;5.05;;;7.00;99.90;;;;;;5026485;28;20135;-70
2023/03/26 01:11:14;;;;;;;20.80;4.10;;;7.00;99.90;;;;;;5026714;28;20026;-69
2023/03/26 01:13:47;;;;;;;19.50;3.80;;;7.00;99.90;;;;;;5026214;28;20025;-70
2023/03/26 01:16:27;;;;;;;18.10;4.13;;;7.00;99.90;;;;;;5025796;28;20053;-69
2023/03/26 01:18:53;;;;;;;19.92;3.67;;;7.00;99.90;;;;;;5045118;28;20033;-69
2023/03/26 01:21:29;;;;;;;24.90;4.07;;;6.90;99.90;;;;;;5046404;28;20475;-69
2023/03/26 01:24:03;;;;;;;25.20;4.20;;;6.90;99.90;;;;;;5046293;28;20025;-70
2023/03/26 01:26:35;;;;;;;27.35;4.45;;;7.00;99.90;;;;;;5044642;28;20037;-70
2023/03/26 01:29:03;;;;;;;23.33;4.45;;;7.00;99.90;;;;;;5045665;28;20017;-70
2023/03/26 01:31:52;;;;;;;19.60;3.70;;;6.90;99.90;;;;;;5046472;28;20026;-71
2023/03/26 01:35:06;;;;;;;24.98;4.15;;;7.00;99.90;;;;;;5045927;28;20065;-69
2023/03/26 01:37:45;;;;;;;24.58;5.00;;;6.90;99.90;;;;;;5026878;28;20516;-70
2023/03/26 01:40:41;;;;;;;24.67;4.10;;;6.90;99.90;;;;;;5043958;28;20394;-70
2023/03/26 01:43:23;;;;;;;26.55;4.55;;;6.90;99.90;;;;;;5045572;28;20021;-70
2023/03/26 01:45:51;;;;;;;23.58;4.53;;;6.90;99.90;;;;;;5045953;28;20420;-69
2023/03/26 01:48:17;;;;;;;28.33;4.10;;;6.90;99.90;;;;;;5045363;28;20025;-70
2023/03/26 01:50:43;;;;;;;36.30;4.25;;;6.90;99.90;;;;;;5043789;28;20097;-69
2023/03/26 01:53:12;;;;;;;22.90;4.03;;;6.90;99.90;;;;;;5045705;28;20084;-70
2023/03/26 01:56:14;;;;;;;28.88;4.20;;;6.90;99.90;;;;;;5045500;28;20047;-70
2023/03/26 01:59:06;;;;;;;23.92;4.30;;;6.80;99.90;;;;;;5045779;28;20120;-70
2023/03/26 02:01:53;;;;;;;37.72;4.68;;;6.90;99.90;;;;;;5045531;28;20540;-70
2023/03/26 02:04:51;;;;;;;19.13;3.78;;;6.90;99.90;;;;;;5045491;28;20037;-70
2023/03/26 02:07:33;;;;;;;23.77;4.05;;;6.90;99.90;;;;;;5038551;28;20049;-69
2023/03/26 02:10:05;;;;;;;39.50;4.50;;;6.90;99.90;;;;;;5027770;28;20545;-70
2023/03/26 02:12:31;;;;;;;32.55;4.65;;;6.90;99.90;;;;;;5024457;28;20443;-71
2023/03/26 02:15:00;;;;;;;28.77;5.40;;;6.90;99.90;;;;;;5025252;28;20034;-70
2023/03/26 02:17:28;;;;;;;28.15;5.13;;;6.90;99.90;;;;;;5025109;28;20076;-70
2023/03/26 02:19:55;;;;;;;25.30;4.15;;;6.90;99.90;;;;;;5024920;28;20034;-71
2023/03/26 02:22:21;;;;;;;20.95;4.15;;;6.90;99.90;;;;;;5025536;28;20026;-70
2023/03/26 02:24:47;;;;;;;19.90;4.28;;;6.80;99.90;;;;;;5025109;28;20025;-71
2023/03/26 02:27:13;;;;;;;24.10;4.78;;;6.90;99.90;;;;;;5025052;28;20026;-69
2023/03/26 02:29:39;;;;;;;32.78;4.85;;;6.80;99.90;;;;;;5025367;28;20028;-70
2023/03/26 02:32:06;;;;;;;32.20;5.10;;;6.90;99.90;;;;;;5025091;28;20026;-71
2023/03/26 02:34:32;;;;;;;26.20;5.03;;;6.80;99.90;;;;;;5040613;28;20109;-72
2023/03/26 02:36:58;;;;;;;22.92;4.82;;;6.80;99.90;;;;;;5043212;28;20018;-72
2023/03/26 02:39:25;;;;;;;24.88;4.20;;;6.80;99.90;;;;;;5042577;28;20045;-70
2023/03/26 02:41:50;;;;;;;23.63;4.70;;;6.90;99.90;;;;;;5028286;28;20048;-70
2023/03/26 02:44:16;;;;;;;24.90;4.35;;;6.90;99.90;;;;;;5024835;28;20526;-71
2023/03/26 02:46:41;;;;;;;33.47;4.80;;;6.90;99.90;;;;;;5025186;28;20033;-70
2023/03/26 02:49:07;;;;;;;27.33;4.53;;;6.80;99.90;;;;;;5024838;28;20065;-71
2023/03/26 02:51:36;;;;;;;26.20;4.63;;;6.90;99.90;;;;;;5040763;28;20032;-70
2023/03/26 02:54:02;;;;;;;32.45;5.15;;;6.80;99.90;;;;;;5044611;28;20017;-70
2023/03/26 02:56:27;;;;;;;27.85;4.50;;;6.90;99.90;;;;;;5043408;28;20038;-71
2023/03/26 02:58:53;;;;;;;28.88;4.75;;;6.80;99.90;;;;;;5044242;28;20085;-70
2023/03/26 03:01:19;;;;;;;30.83;4.88;;;6.90;99.90;;;;;;5044766;28;20471;-70
2023/03/26 03:03:48;;;;;;;21.67;4.18;;;6.80;99.90;;;;;;5044304;28;20026;-70
2023/03/26 03:06:17;;;;;;;22.60;4.50;;;6.80;99.90;;;;;;5044009;28;20026;-70
2023/03/26 03:08:47;;;;;;;16.27;4.18;;;6.80;99.90;;;;;;5044194;28;20033;-70
2023/03/26 03:11:16;;;;;;;17.30;2.90;;;6.80;99.90;;;;;;5044285;28;20025;-70
2023/03/26 03:13:42;;;;;;;26.95;4.28;;;6.80;99.90;;;;;;5042521;28;20028;-70
2023/03/26 03:16:09;;;;;;;26.10;3.85;;;6.80;99.90;;;;;;5041595;28;20026;-70
2023/03/26 03:18:35;;;;;;;22.13;3.10;;;6.80;99.90;;;;;;5023915;28;20034;-72
2023/03/26 03:21:01;;;;;;;13.55;3.03;;;6.70;99.90;;;;;;5024826;28;20415;-70
2023/03/26 03:23:27;;;;;;;19.10;3.00;;;6.70;99.90;;;;;;5023443;28;20116;-70
2023/03/26 03:25:55;;;;;;;20.40;3.40;;;6.70;99.90;;;;;;5024238;28;20057;-71
2023/03/26 03:28:22;;;;;;;25.30;3.65;;;6.70;99.90;;;;;;5023249;28;20029;-70
2023/03/26 03:30:51;;;;;;;17.75;2.92;;;6.70;99.90;;;;;;5024594;28;20026;-71
2023/03/26 03:33:19;;;;;;;18.10;2.33;;;6.70;99.90;;;;;;5023981;28;20022;-70
2023/03/26 03:35:48;;;;;;;14.30;2.40;;;6.70;99.90;;;;;;5024614;28;20045;-70
2023/03/26 03:38:15;;;;;;;19.52;3.10;;;6.70;99.90;;;;;;5024443;28;20120;-71
2023/03/26 03:40:41;;;;;;;16.95;2.72;;;6.70;99.90;;;;;;5024162;28;20030;-72
2023/03/26 03:43:07;;;;;;;17.25;2.67;;;6.60;99.90;;;;;;5041900;28;20030;-71
2023/03/26 03:45:33;;;;;;;19.20;3.05;;;6.60;99.90;;;;;;5024236;28;20026;-70
2023/03/26 03:47:58;;;;;;;18.27;3.08;;;6.60;99.90;;;;;;5022595;28;20026;-70
2023/03/26 03:50:24;;;;;;;22.70;3.03;;;6.60;99.90;;;;;;5027921;28;20037;-71
2023/03/26 03:52:50;;;;;;;14.45;2.67;;;6.60;99.90;;;;;;5028167;28;20026;-71
2023/03/26 03:55:16;;;;;;;24.05;3.42;;;6.50;99.90;;;;;;5034313;28;20052;-71
2023/03/26 03:57:41;;;;;;;24.20;3.60;;;6.50;99.90;;;;;;5046638;28;20026;-71
2023/03/26 04:00:08;;;;;;;16.73;2.50;;;6.40;99.90;;;;;;5046178;28;20034;-71
2023/03/26 04:02:34;;;;;;;20.52;3.20;;;6.40;99.90;;;;;;5047808;28;20021;-71
2023/03/26 04:05:01;;;;;;;34.72;3.75;;;6.40;99.90;;;;;;5047453;28;20029;-72
2023/03/26 04:07:31;;;;;;;18.65;3.03;;;6.30;99.90;;;;;;5047568;28;20054;-71
2023/03/26 04:10:03;;;;;;;28.85;3.80;;;6.30;99.90;;;;;;5047763;28;20032;-71
2023/03/26 04:12:30;;;;;;;21.70;2.97;;;6.30;99.90;;;;;;5042571;28;20058;-72
2023/03/26 04:14:56;;;;;;;24.08;3.20;;;6.30;99.90;;;;;;5042744;28;20026;-71
2023/03/26 04:17:22;;;;;;;27.98;3.92;;;6.30;99.90;;;;;;5027644;28;20026;-71
2023/03/26 04:19:51;;;;;;;18.23;3.40;;;6.30;99.90;;;;;;5027422;28;20042;-71
2023/03/26 04:22:18;;;;;;;23.10;3.33;;;6.30;99.90;;;;;;5026391;28;20548;-72
2023/03/26 04:24:44;;;;;;;29.55;4.07;;;6.30;99.90;;;;;;5027338;28;20387;-72
2023/03/26 04:27:14;;;;;;;25.65;3.92;;;6.30;99.90;;;;;;5026966;28;20028;-72
2023/03/26 04:29:43;;;;;;;26.27;3.50;;;6.30;99.90;;;;;;5027443;28;20029;-70
2023/03/26 04:32:28;;;;;;;24.58;3.25;;;6.30;99.90;;;;;;5027261;28;20061;-72
2023/03/26 04:34:59;;;;;;;31.67;3.63;;;6.30;99.90;;;;;;5027551;28;20034;-72
2023/03/26 04:37:38;;;;;;;26.52;3.40;;;6.20;99.90;;;;;;5026285;28;20026;-70
2023/03/26 04:40:11;;;;;;;19.35;3.67;;;6.30;99.90;;;;;;5026566;28;20041;-71
2023/03/26 04:42:40;;;;;;;24.67;3.97;;;6.20;99.90;;;;;;5042466;28;20053;-72
2023/03/26 04:45:07;;;;;;;23.35;3.10;;;6.20;99.90;;;;;;5027226;28;20081;-72
2023/03/26 04:47:35;;;;;;;28.30;3.67;;;6.10;99.90;;;;;;5027297;28;20026;-71
2023/03/26 04:50:02;;;;;;;27.92;4.40;;;6.10;99.90;;;;;;5027272;28;20026;-71
2023/03/26 04:52:28;;;;;;;32.20;4.47;;;6.20;99.90;;;;;;5027215;28;20041;-72
2023/03/26 04:54:54;;;;;;;29.00;3.63;;;6.20;99.90;;;;;;5027024;28;20065;-72
2023/03/26 04:57:29;;;;;;;29.17;3.90;;;6.10;99.90;;;;;;5026393;28;20093;-72
2023/03/26 04:59:55;;;;;;;30.45;4.30;;;6.10;99.90;;;;;;5024655;28;20038;-71
2023/03/26 05:02:20;;;;;;;34.50;4.57;;;6.30;99.90;;;;;;5026130;28;20033;-71
2023/03/26 05:04:48;;;;;;;28.67;4.75;;;6.20;99.90;;;;;;5026826;28;20034;-71
2023/03/26 05:07:21;;;;;;;22.67;3.70;;;6.20;99.90;;;;;;5026439;28;20046;-70
2023/03/26 05:09:46;;;;;;;29.58;4.18;;;6.20;99.90;;;;;;5026795;28;20025;-71
2023/03/26 05:12:13;;;;;;;20.08;3.47;;;6.20;99.90;;;;;;5026521;28;20021;-71
2023/03/26 05:14:38;;;;;;;27.27;3.65;;;6.20;99.90;;;;;;5025849;28;20034;-72
2023/03/26 05:17:04;;;;;;;29.15;3.58;;;6.20;99.90;;;;;;5026197;28;20081;-71
2023/03/26 05:19:31;;;;;;;25.08;3.88;;;6.10;99.90;;;;;;5042810;28;20076;-72
2023/03/26 05:21:56;;;;;;;27.50;3.78;;;6.20;99.90;;;;;;5046151;28;20039;-71
2023/03/26 05:24:23;;;;;;;24.55;3.30;;;6.20;99.90;;;;;;5046115;28;20406;-71
2023/03/26 05:26:49;;;;;;;27.98;4.03;;;6.20;99.90;;;;;;5044914;28;20096;-72
2023/03/26 05:29:16;;;;;;;20.92;3.58;;;6.20;99.90;;;;;;5045615;28;20053;-71
2023/03/26 05:31:43;;;;;;;16.85;3.50;;;6.20;99.90;;;;;;5045219;28;20033;-71
2023/03/26 05:34:09;;;;;;;24.58;3.80;;;6.20;99.90;;;;;;5037387;28;20033;-72
2023/03/26 05:36:35;;;;;;;33.42;3.83;;;6.20;99.90;;;;;;5025522;28;20026;-71
2023/03/26 05:39:02;;;;;;;20.63;4.22;;;6.30;99.90;;;;;;5047457;28;20032;-72
2023/03/26 05:41:27;;;;;;;29.60;3.42;;;6.20;99.90;;;;;;5046080;28;20022;-71
2023/03/26 05:43:53;;;;;;;18.63;3.42;;;6.10;99.90;;;;;;5031934;28;20211;-70
2023/03/26 05:46:20;;;;;;;13.85;2.83;;;6.20;99.90;;;;;;5036948;28;20029;-71
2023/03/26 05:48:46;;;;;;;20.65;3.40;;;6.40;99.90;;;;;;5041112;28;20033;-71
2023/03/26 05:51:14;;;;;;;24.13;3.00;;;6.30;99.90;;;;;;5029673;28;20034;-71
2023/03/26 05:53:40;;;;;;;28.40;3.47;;;6.30;99.90;;;;;;5036158;28;20021;-70
2023/03/26 05:56:06;;;;;;;17.27;3.00;;;6.30;99.90;;;;;;5042685;28;20025;-71
2023/03/26 05:58:33;;;;;;;20.05;3.35;;;6.30;99.90;;;;;;5036156;28;20042;-72
2023/03/26 06:01:04;;;;;;;23.10;3.33;;;6.30;99.90;;;;;;5032207;28;20030;-72
2023/03/26 06:03:31;;;;;;;17.58;3.58;;;6.40;99.90;;;;;;5040126;28;20076;-72
2023/03/26 06:05:57;;;;;;;13.52;2.47;;;6.30;99.90;;;;;;5044622;28;20037;-71
2023/03/26 06:08:23;;;;;;;26.08;4.05;;;6.30;99.90;;;;;;5036944;28;20140;-70
2023/03/26 06:10:52;;;;;;;14.27;3.10;;;6.40;99.90;;;;;;5033415;28;20025;-71
2023/03/26 06:13:18;;;;;;;21.27;2.88;;;6.40;99.90;;;;;;5035769;28;20045;-71
2023/03/26 06:15:44;;;;;;;29.27;3.40;;;6.40;99.90;;;;;;5033589;28;20029;-71
2023/03/26 06:18:09;;;;;;;23.05;3.38;;;6.40;99.90;;;;;;5029201;28;20048;-72
2023/03/26 06:20:36;;;;;;;24.83;3.40;;;6.40;99.90;;;;;;5033627;28;20033;-71
2023/03/26 06:23:01;;;;;;;19.92;3.45;;;6.50;99.90;;;;;;5025535;28;20026;-71
2023/03/26 06:25:27;;;;;;;22.00;3.55;;;6.50;99.90;;;;;;5038439;28;20036;-70
2023/03/26 06:27:52;;;;;;;23.25;3.58;;;6.50;99.90;;;;;;5044589;28;20029;-71
2023/03/26 06:30:18;;;;;;;26.13;3.80;;;6.50;99.90;;;;;;5038404;28;20068;-71
2023/03/26 06:32:44;;;;;;;27.50;3.75;;;6.50;99.90;;;;;;5026763;28;20022;-71
2023/03/26 06:35:10;;;;;;;26.67;4.05;;;6.50;99.90;;;;;;5031459;28;20052;-71
2023/03/26 06:37:36;;;;;;;19.17;3.80;;;6.50;99.90;;;;;;5030616;28;20026;-72
2023/03/26 06:40:02;;;;;;;27.08;3.63;;;6.50;99.90;;;;;;5031331;28;20038;-72
2023/03/26 06:42:27;;;;;;;23.13;3.35;;;6.50;99.90;;;;;;5025131;28;20580;-72
2023/03/26 06:44:53;;;;;;;18.00;2.67;;;6.50;99.90;;;;;;5036064;28;20029;-72
2023/03/26 06:47:19;;;;;;;20.10;3.00;;;6.50;99.90;;;;;;5034923;28;20041;-72
2023/03/26 06:49:44;;;;;;;21.40;3.28;;;6.40;99.90;;;;;;5046498;28;20049;-72
2023/03/26 06:52:11;;;;;;;26.10;3.95;;;6.40;99.90;;;;;;5025161;28;20109;-71
2023/03/26 06:54:37;;;;;;;21.88;2.60;;;6.50;99.90;;;;;;5033293;28;20021;-71
2023/03/26 06:57:03;;;;;;;19.80;3.13;;;6.40;99.90;;;;;;5044621;28;20060;-71
2023/03/26 06:59:28;;;;;;;27.10;3.25;;;6.30;99.90;;;;;;5044805;28;20041;-72
2023/03/26 07:01:54;;;;;;;19.02;3.15;;;6.30;99.90;;;;;;5044747;28;20056;-71
2023/03/26 07:04:20;;;;;;;21.27;2.70;;;6.30;99.90;;;;;;5037933;28;20479;-71
2023/03/26 07:06:45;;;;;;;26.15;3.50;;;6.40;99.90;;;;;;5039683;28;20077;-71
2023/03/26 07:09:11;;;;;;;16.95;3.03;;;6.40;99.90;;;;;;5032665;28;20116;-72
2023/03/26 07:11:36;;;;;;;31.13;2.90;;;6.40;99.90;;;;;;5024837;28;20056;-72
2023/03/26 07:14:02;;;;;;;23.27;3.17;;;6.40;99.90;;;;;;5023630;28;20030;-72
2023/03/26 07:16:27;;;;;;;15.48;2.85;;;6.50;99.90;;;;;;5025208;28;20061;-72
2023/03/26 07:18:54;;;;;;;20.33;2.70;;;6.50;99.90;;;;;;5030878;28;20041;-71
2023/03/26 07:21:20;;;;;;;14.65;2.30;;;6.50;99.90;;;;;;5035178;28;20084;-71
2023/03/26 07:23:46;;;;;;;16.25;3.40;;;6.60;99.90;;;;;;5030463;28;20028;-71
2023/03/26 07:26:26;;;;;;;24.13;3.28;;;6.60;99.90;;;;;;5033507;28;20095;-71
2023/03/26 07:29:10;;;;;;;18.38;2.83;;;6.50;99.90;;;;;;5047019;28;20052;-71
2023/03/26 07:31:57;;;;;;;14.65;2.47;;;6.50;99.90;;;;;;5048515;28;20030;-73
2023/03/26 07:34:44;;;;;;;25.20;3.47;;;6.50;99.90;;;;;;5027262;28;20085;-71
2023/03/26 07:37:19;;;;;;;22.05;3.00;;;6.50;99.90;;;;;;5028273;28;20119;-71
2023/03/26 07:39:56;;;;;;;18.45;2.97;;;6.50;99.90;;;;;;5028176;28;20033;-71
2023/03/26 07:42:43;;;;;;;19.88;3.03;;;6.50;99.90;;;;;;5027247;28;20036;-71
2023/03/26 07:45:09;;;;;;;14.77;3.08;;;6.50;99.90;;;;;;5037152;28;20033;-71
2023/03/26 07:47:35;;;;;;;22.02;3.35;;;6.50;99.90;;;;;;5048181;28;20052;-71
2023/03/26 07:50:01;;;;;;;15.10;2.53;;;6.50;99.90;;;;;;5048032;28;20049;-71
2023/03/26 07:52:27;;;;;;;17.05;2.80;;;6.50;99.90;;;;;;5048325;28;20047;-71
2023/03/26 07:54:53;;;;;;;16.50;2.60;;;6.50;99.90;;;;;;5040016;28;20040;-71
2023/03/26 07:57:49;;;;;;;21.67;2.80;;;6.60;99.90;;;;;;5027999;28;20049;-71
2023/03/26 08:00:32;;;;;;;18.75;2.50;;;6.70;99.90;;;;;;5046201;28;20044;-70
2023/03/26 08:03:28;;;;;;;22.05;2.90;;;6.70;99.90;;;;;;5047454;28;20040;-73
2023/03/26 08:06:28;;;;;;;21.90;4.13;;;6.70;99.90;;;;;;5031334;28;20501;-71
2023/03/26 08:09:34;;;;;;;27.13;3.42;;;6.70;99.90;;;;;;5043499;28;20037;-72
2023/03/26 08:12:13;;;;;;;18.98;2.65;;;6.70;99.90;;;;;;5044803;28;20025;-70
2023/03/26 08:14:52;;;;;;;19.52;2.22;;;6.60;99.90;;;;;;5044604;28;20470;-71
2023/03/26 08:17:43;;;;;;;16.33;2.60;;;6.60;99.90;;;;;;5032982;28;20033;-70
2023/03/26 08:20:12;;;;;;;20.65;3.22;;;6.60;99.90;;;;;;5028170;28;20119;-70
2023/03/26 08:22:40;;;;;;;15.18;2.65;;;6.50;99.90;;;;;;5036564;28;20075;-71
2023/03/26 08:25:26;;;;;;;17.30;2.75;;;6.60;99.90;;;;;;5038527;28;20040;-72
2023/03/26 08:28:16;;;;;;;19.60;2.88;;;6.50;99.90;;;;;;5041395;28;20089;-70
2023/03/26 08:30:41;;;;;;;13.85;2.97;;;6.60;99.90;;;;;;5037309;28;20030;-71
2023/03/26 08:33:10;;;;;;;12.13;2.60;;;6.70;99.90;;;;;;5033512;28;20083;-72
2023/03/26 08:35:41;;;;;;;18.92;2.95;;;6.70;99.90;;;;;;5033940;28;20022;-70
2023/03/26 08:38:13;;;;;;;20.10;2.85;;;6.70;99.90;;;;;;5028707;28;20087;-70
2023/03/26 08:41:15;;;;;;;14.02;2.53;;;6.80;99.90;;;;;;5026997;28;20030;-71
2023/03/26 08:43:50;;;;;;;16.88;2.70;;;6.80;99.90;;;;;;5027664;28;20045;-71
2023/03/26 08:46:52;;;;;;;17.15;3.00;;;6.80;99.90;;;;;;5031498;28;20133;-70
2023/03/26 08:49:24;;;;;;;24.02;3.33;;;6.90;99.90;;;;;;5029839;28;20034;-71
2023/03/26 08:52:07;;;;;;;20.50;2.78;;;7.00;99.90;;;;;;5035929;28;20041;-70
2023/03/26 08:55:03;;;;;;;23.92;3.03;;;7.10;99.90;;;;;;5026969;28;20104;-71
2023/03/26 08:58:10;;;;;;;26.85;3.10;;;7.10;99.90;;;;;;5029351;28;20033;-72
2023/03/26 09:00:35;;;;;;;26.25;3.17;;;7.20;99.90;;;;;;5026529;28;20049;-71
2023/03/26 09:03:20;;;;;;;28.73;3.13;;;7.30;99.90;;;;;;5036492;28;20615;-71
2023/03/26 09:05:53;;;;;;;19.88;3.25;;;7.40;99.90;;;;;;5046363;28;20066;-71
2023/03/26 09:08:42;;;;;;;24.60;3.45;;;7.50;99.90;;;;;;5046566;28;20064;-71
2023/03/26 09:11:51;;;;;;;28.45;3.40;;;7.70;99.90;;;;;;5054269;28;20100;-72
2023/03/26 09:14:54;;;;;;;17.17;2.95;;;7.70;99.90;;;;;;5004365;28;20061;-70
2023/03/26 09:17:42;;;;;;;21.90;4.68;;;7.60;99.90;;;;;;5038698;28;20823;-70
2023/03/26 09:20:27;;;;;;;24.55;3.70;;;7.70;99.90;;;;;;5028197;28;20092;-69
2023/03/26 09:22:52;;;;;;;;;;;7.60;99.90;;;;;;5035788;28;20036;-69
2023/03/26 09:25:40;;;;;;;22.48;3.78;;;7.60;99.90;;;;;;5039113;28;20032;-69
2023/03/26 09:28:19;;;;;;;20.48;3.65;;;7.60;99.90;;;;;;5031032;28;20030;-70
2023/03/26 09:30:50;;;;;;;20.70;3.03;;;7.60;99.90;;;;;;5026385;28;20044;-70
2023/03/26 09:33:55;;;;;;;29.83;4.20;;;7.70;99.90;;;;;;5030607;28;20032;-69
2023/03/26 09:36:35;;;;;;;18.83;3.93;;;7.90;99.90;;;;;;5041555;28;20034;-69
2023/03/26 09:39:40;;;;;;;21.73;3.30;;;8.30;99.90;;;;;;5026220;28;20297;-70
2023/03/26 09:42:36;;;;;;;23.83;3.27;;;8.80;99.90;;;;;;5026325;28;20022;-68
2023/03/26 09:45:35;;;;;;;25.95;4.28;;;9.10;99.90;;;;;;5043298;28;20052;-69
2023/03/26 09:48:35;;;;;;;18.30;4.30;;;9.20;99.90;;;;;;5045848;28;20048;-70
2023/03/26 09:51:12;;;;;;;24.80;3.67;;;9.10;99.90;;;;;;5030175;28;20064;-69
2023/03/26 09:53:57;;;;;;;18.80;4.75;;;9.10;99.90;;;;;;5030362;28;20057;-69
2023/03/26 09:56:57;;;;;;;25.08;5.05;;;9.10;99.90;;;;;;5038585;28;20076;-69
2023/03/26 09:59:56;;;;;;;30.05;4.20;;;9.00;99.90;;;;;;5032294;28;20037;-69
2023/03/26 10:02:34;;;;;;;26.10;4.32;;;8.80;99.90;;;;;;5032095;28;20037;-69
2023/03/26 10:05:19;;;;;;;21.98;3.80;;;8.80;99.90;;;;;;5046789;28;20029;-70
2023/03/26 10:08:28;;;;;;;25.92;3.95;;;8.90;99.90;;;;;;5028669;28;20060;-68
2023/03/26 10:11:25;;;;;;;27.65;3.45;;;8.80;99.90;;;;;;5039395;28;20037;-69
2023/03/26 10:14:13;;;;;;;25.70;5.07;;;8.70;99.90;;;;;;5041550;28;20033;-69
2023/03/26 10:16:47;;;;;;;17.73;3.13;;;8.60;99.90;;;;;;5031219;28;20545;-70
2023/03/26 10:19:48;;;;;;;28.90;3.40;;;8.60;99.90;;;;;;5034871;28;20037;-69
2023/03/26 10:22:33;;;;;;;24.05;3.88;;;8.60;99.90;;;;;;5029525;28;20021;-70
2023/03/26 10:25:32;;;;;;;21.42;3.05;;;8.60;99.90;;;;;;5033483;28;20029;-70
2023/03/26 10:28:31;;;;;;;17.48;2.92;;;8.80;99.90;;;;;;5033370;28;20125;-69
2023/03/26 10:31:30;;;;;;;23.60;3.28;;;8.80;99.90;;;;;;5032895;28;20034;-69
2023/03/26 10:34:22;;;;;;;24.13;3.50;;;8.70;99.90;;;;;;5042022;28;20042;-68
2023/03/26 10:37:02;;;;;;;21.30;2.92;;;8.70;99.90;;;;;;5041318;28;20410;-69
2023/03/26 10:40:04;;;;;;;17.52;2.70;;;8.60;99.90;;;;;;5029167;28;20091;-69
2023/03/26 10:43:04;;;;;;;24.58;3.70;;;8.60;99.90;;;;;;5040315;28;20030;-70
2023/03/26 10:46:04;;;;;;;26.77;3.83;;;8.90;99.90;;;;;;5039511;28;20033;-69
2023/03/26 10:48:51;;;;;;;31.35;3.05;;;9.40;99.90;;;;;;5035852;28;20029;-70
2023/03/26 10:51:40;;;;;;;25.27;3.95;;;9.70;99.90;;;;;;5040447;28;20058;-70
2023/03/26 10:54:48;;;;;;;21.05;3.88;;;9.90;99.90;;;;;;5039647;28;20026;-70
2023/03/26 10:57:19;;;;;;;24.30;3.70;;;9.90;99.90;;;;;;4983233;28;20122;-69
2023/03/26 10:59:45;;;;;;;20.23;3.25;;;9.80;99.90;;;;;;5030939;28;20073;-69
2023/03/26 11:02:29;;;;;;;23.58;3.05;;;9.70;99.90;;;;;;5038695;28;20506;-71
2023/03/26 11:05:25;;;;;;;18.50;3.38;;;9.60;99.90;;;;;;5032566;28;20175;-69
2023/03/26 11:08:03;;;;;;;14.93;2.72;;;9.80;99.90;;;;;;5039420;28;20060;-70
2023/03/26 11:10:54;;;;;;;21.00;3.63;;;10.00;99.90;;;;;;5030651;28;20081;-72
2023/03/26 11:13:23;;;;;;;17.85;3.30;;;10.00;99.90;;;;;;5027967;28;20116;-71
2023/03/26 11:16:32;;;;;;;17.45;2.78;;;9.90;99.90;;;;;;5023787;28;20026;-70
2023/03/26 11:19:27;;;;;;;28.83;3.75;;;10.00;99.90;;;;;;5013513;28;20081;-70
2023/03/26 11:22:01;;;;;;;21.17;3.42;;;10.00;99.90;;;;;;5024044;28;20026;-70
2023/03/26 11:25:00;;;;;;;16.53;3.03;;;10.00;99.90;;;;;;5033776;28;20105;-71
2023/03/26 11:27:57;;;;;;;20.73;3.47;;;9.90;99.90;;;;;;5041929;28;20025;-70
2023/03/26 11:30:35;;;;;;;21.58;3.72;;;9.90;99.90;;;;;;5043552;28;20036;-67
2023/03/26 11:33:04;;;;;;;18.63;2.85;;;9.70;99.90;;;;;;5043803;28;20030;-71
2023/03/26 11:35:35;;;;;;;20.48;3.45;;;9.50;99.90;;;;;;5043885;28;20031;-72
2023/03/26 11:38:05;;;;;;;19.50;3.35;;;9.40;99.90;;;;;;5032838;28;20061;-71
2023/03/26 11:40:33;;;;;;;18.48;3.13;;;9.30;99.90;;;;;;5028842;28;20026;-71
2023/03/26 11:43:06;;;;;;;20.38;2.78;;;9.40;99.90;;;;;;5023922;28;20101;-69
2023/03/26 11:45:36;;;;;;;21.38;2.90;;;9.80;99.90;;;;;;5038732;28;20033;-70
2023/03/26 11:48:02;;;;;;;16.35;3.25;;;10.20;99.90;;;;;;5029757;28;20116;-71
2023/03/26 11:50:31;;;;;;;18.15;2.88;;;10.60;99.90;;;;;;5038376;28;20028;-70
2023/03/26 11:53:11;;;;;;;19.02;3.25;;;11.00;99.90;;;;;;5037651;28;20029;-69
2023/03/26 11:55:47;;;;;;;15.90;2.47;;;11.50;99.90;;;;;;5036235;28;20030;-70
2023/03/26 11:58:53;;;;;;;22.38;3.30;;;11.60;99.90;;;;;;5038069;28;20038;-70
2023/03/26 12:01:38;;;;;;;;;;;11.40;99.90;;;;;;4980232;28;20031;-70
2023/03/26 12:04:09;;;;;;;18.67;3.08;;;11.20;99.90;;;;;;5038124;28;19912;-71
2023/03/26 12:06:35;;;;;;;13.65;2.28;;;11.00;99.90;;;;;;5058005;28;20025;-70
2023/03/26 12:09:01;;;;;;;14.02;2.50;;;11.00;99.90;;;;;;5043439;28;20056;-70
2023/03/26 12:11:33;;;;;;;16.60;2.47;;;11.30;99.90;;;;;;5047163;28;20033;-70
2023/03/26 12:14:05;;;;;;;14.88;2.85;;;11.70;99.90;;;;;;5045947;28;20030;-71
2023/03/26 12:16:31;;;;;;;15.55;2.70;;;12.20;99.90;;;;;;5047047;28;20044;-70
2023/03/26 12:19:17;;;;;;;14.15;2.22;;;12.60;99.90;;;;;;5046972;28;20037;-68
2023/03/26 12:21:48;;;;;;;20.70;3.22;;;12.60;99.90;;;;;;5046807;28;20029;-69
2023/03/26 12:24:28;;;;;;;20.90;3.15;;;12.40;99.90;;;;;;5036882;28;20049;-70
2023/03/26 12:27:29;;;;;;;13.40;2.72;;;12.10;99.90;;;;;;5027552;28;20033;-69
2023/03/26 12:30:07;;;;;;;18.23;3.33;;;11.60;99.90;;;;;;5030088;28;20029;-70
2023/03/26 12:32:39;;;;;;;13.35;2.58;;;11.60;99.90;;;;;;5036205;28;20030;-70
2023/03/26 12:35:06;;;;;;;19.63;2.80;;;12.10;99.90;;;;;;5037064;28;20044;-70
2023/03/26 12:37:42;;;;;;;18.70;3.17;;;12.50;99.90;;;;;;5039262;28;20032;-70
2023/03/26 12:40:32;;;;;;;17.77;2.55;;;12.50;99.90;;;;;;5039082;28;20041;-71
2023/03/26 12:43:19;;;;;;;19.63;2.83;;;12.80;99.90;;;;;;5046918;28;20123;-70
2023/03/26 12:45:49;;;;;;;25.88;3.35;;;13.00;99.90;;;;;;5046411;28;20080;-70
2023/03/26 12:48:16;;;;;;;24.00;2.80;;;13.10;99.90;;;;;;5044916;28;20033;-70
2023/03/26 12:51:12;;;;;;;21.25;3.20;;;12.90;99.90;;;;;;5046239;28;20025;-70
2023/03/26 12:54:00;;;;;;;19.08;3.10;;;12.60;99.90;;;;;;5046247;28;20035;-72
2023/03/26 12:56:42;;;;;;;18.55;2.78;;;12.30;99.90;;;;;;5046236;28;20025;-70
2023/03/26 12:59:20;;;;;;;16.20;2.40;;;12.10;99.90;;;;;;5036455;28;20101;-70
2023/03/26 13:02:19;;;;;;;16.60;2.88;;;11.90;99.90;;;;;;5026351;28;20022;-70
2023/03/26 13:05:03;;;;;;;19.75;2.70;;;12.10;99.90;;;;;;5042523;28;20378;-69
2023/03/26 13:07:56;;;;;;;15.77;3.00;;;12.70;99.90;;;;;;5045944;28;20114;-72
2023/03/26 13:10:36;;;;;;;16.35;2.83;;;13.20;99.90;;;;;;5045981;28;20272;-70
2023/03/26 13:13:45;;;;;;;15.30;2.97;;;13.00;99.90;;;;;;5042654;28;20026;-70
2023/03/26 13:16:20;;;;;;;13.07;2.42;;;12.80;99.90;;;;;;5013092;28;20143;-70
2023/03/26 13:19:04;;;;;;;15.98;2.58;;;13.00;99.90;;;;;;5025703;28;20030;-71
2023/03/26 13:21:38;;;;;;;12.18;2.70;;;13.30;99.90;;;;;;5029831;28;20030;-72
2023/03/26 13:24:17;;;;;;;11.15;2.40;;;13.50;99.90;;;;;;5050591;28;20030;-72